sensor_id;sensor_type;location;lat;lon;timestamp;pressure;altitude;pressure_sealevel;temperature;humidity
35551;BME280;21655;46.056;13.616;2023-04-06T00:02:24;100740.25;;;3.62;100.00
35551;BME280;21655;46.056;13.616;2023-04-06T00:04:49;100739.28;;;3.63;100.00
35551;BME280;21655;46.056;13.616;2023-04-06T00:07:14;100731.03;;;3.74;100.00
35551;BME280;21655;46.056;13.616;2023-04-06T00:09:40;100730.31;;;3.61;100.00
35551;BME280;21655;46.056;13.616;2023-04-06T00:12:06;100725.59;;;3.52;100.00
35551;BME280;21655;46.056;13.616;2023-04-06T00:14:31;100730.44;;;3.60;100.00
35551;BME280;21655;46.056;13.616;2023-04-06T00:16:57;100727.56;;;3.61;100.00
35551;BME280;21655;46.056;13.616;2023-04-06T00:19:22;100729.72;;;3.47;100.00
35551;BME280;21655;46.056;13.616;2023-04-06T00:21:48;100731.47;;;3.37;100.00
35551;BME280;21655;46.056;13.616;2023-04-06T00:24:13;100733.09;;;3.17;100.00
35551;BME280;21655;46.056;13.616;2023-04-06T00:26:39;100728.00;;;3.13;100.00
35551;BME280;21655;46.056;13.616;2023-04-06T00:29:04;100741.81;;;3.22;100.00
35551;BME280;21655;46.056;13.616;2023-04-06T00:31:30;100732.84;;;3.20;100.00
35551;BME280;21655;46.056;13.616;2023-04-06T00:33:55;100734.34;;;3.24;100.00
35551;BME280;21655;46.056;13.616;2023-04-06T00:36:21;100731.84;;;3.21;100.00
35551;BME280;21655;46.056;13.616;2023-04-06T00:38:46;100730.75;;;3.24;100.00
35551;BME280;21655;46.056;13.616;2023-04-06T00:41:12;100733.22;;;3.27;100.00
35551;BME280;21655;46.056;13.616;2023-04-06T00:43:37;100731.34;;;3.27;100.00
35551;BME280;21655;46.056;13.616;2023-04-06T00:46:03;100722.28;;;3.27;100.00
35551;BME280;21655;46.056;13.616;2023-04-06T00:48:28;100725.50;;;3.21;100.00
35551;BME280;21655;46.056;13.616;2023-04-06T00:50:56;100727.50;;;3.19;100.00
35551;BME280;21655;46.056;13.616;2023-04-06T00:53:22;100729.38;;;3.18;100.00
35551;BME280;21655;46.056;13.616;2023-04-06T00:55:47;100731.09;;;3.19;100.00
35551;BME280;21655;46.056;13.616;2023-04-06T00:58:13;100723.53;;;3.23;100.00
35551;BME280;21655;46.056;13.616;2023-04-06T01:00:38;100727.50;;;3.08;100.00
35551;BME280;21655;46.056;13.616;2023-04-06T01:03:04;100726.50;;;2.98;100.00
35551;BME280;21655;46.056;13.616;2023-04-06T01:05:34;100724.88;;;2.95;100.00
35551;BME280;21655;46.056;13.616;2023-04-06T01:08:00;100721.88;;;2.87;100.00
35551;BME280;21655;46.056;13.616;2023-04-06T01:10:27;100732.22;;;2.84;100.00
35551;BME280;21655;46.056;13.616;2023-04-06T01:12:52;100723.88;;;2.85;100.00
35551;BME280;21655;46.056;13.616;2023-04-06T01:15:19;100722.22;;;2.72;100.00
35551;BME280;21655;46.056;13.616;2023-04-06T01:17:45;100727.84;;;2.70;100.00
35551;BME280;21655;46.056;13.616;2023-04-06T01:20:11;100729.22;;;2.76;100.00
35551;BME280;21655;46.056;13.616;2023-04-06T01:22:37;100726.59;;;2.74;100.00
35551;BME280;21655;46.056;13.616;2023-04-06T01:25:02;100729.59;;;2.71;100.00
35551;BME280;21655;46.056;13.616;2023-04-06T01:27:28;100727.69;;;2.61;100.00
35551;BME280;21655;46.056;13.616;2023-04-06T01:29:55;100727.69;;;2.61;100.00
35551;BME280;21655;46.056;13.616;2023-04-06T01:32:20;100724.59;;;2.65;100.00
35551;BME280;21655;46.056;13.616;2023-04-06T01:34:46;100722.47;;;2.69;100.00
35551;BME280;21655;46.056;13.616;2023-04-06T01:37:12;100728.94;;;2.57;100.00
35551;BME280;21655;46.056;13.616;2023-04-06T01:39:37;100726.44;;;2.54;100.00
35551;BME280;21655;46.056;13.616;2023-04-06T01:42:03;100732.59;;;2.34;100.00
35551;BME280;21655;46.056;13.616;2023-04-06T01:44:28;100727.72;;;2.26;100.00
35551;BME280;21655;46.056;13.616;2023-04-06T01:46:55;100737.28;;;2.21;100.00
35551;BME280;21655;46.056;13.616;2023-04-06T01:49:21;100720.41;;;2.27;100.00
35551;BME280;21655;46.056;13.616;2023-04-06T01:51:47;100728.38;;;2.30;100.00
35551;BME280;21655;46.056;13.616;2023-04-06T01:54:12;100725.53;;;2.31;100.00
35551;BME280;21655;46.056;13.616;2023-04-06T01:56:38;100729.84;;;2.23;100.00
35551;BME280;21655;46.056;13.616;2023-04-06T01:59:03;100722.25;;;2.26;100.00
35551;BME280;21655;46.056;13.616;2023-04-06T02:01:29;100722.59;;;2.22;100.00
35551;BME280;21655;46.056;13.616;2023-04-06T02:03:54;100724.72;;;2.18;100.00
35551;BME280;21655;46.056;13.616;2023-04-06T02:06:20;100716.59;;;2.06;100.00
35551;BME280;21655;46.056;13.616;2023-04-06T02:08:45;100722.53;;;2.00;100.00
35551;BME280;21655;46.056;13.616;2023-04-06T02:11:11;100718.13;;;1.86;100.00
35551;BME280;21655;46.056;13.616;2023-04-06T02:13:36;100723.34;;;1.89;100.00
35551;BME280;21655;46.056;13.616;2023-04-06T02:16:02;100713.91;;;1.83;100.00
35551;BME280;21655;46.056;13.616;2023-04-06T02:18:30;100718.97;;;1.87;100.00
35551;BME280;21655;46.056;13.616;2023-04-06T02:20:55;100715.81;;;1.93;100.00
35551;BME280;21655;46.056;13.616;2023-04-06T02:23:21;100714.56;;;1.97;100.00
35551;BME280;21655;46.056;13.616;2023-04-06T02:25:46;100707.75;;;2.02;100.00
35551;BME280;21655;46.056;13.616;2023-04-06T02:28:12;100713.56;;;1.98;100.00
35551;BME280;21655;46.056;13.616;2023-04-06T02:30:37;100713.16;;;1.91;100.00
35551;BME280;21655;46.056;13.616;2023-04-06T02:33:03;100719.03;;;1.98;100.00
35551;BME280;21655;46.056;13.616;2023-04-06T02:35:29;100711.25;;;1.81;100.00
35551;BME280;21655;46.056;13.616;2023-04-06T02:37:55;100708.19;;;1.85;100.00
35551;BME280;21655;46.056;13.616;2023-04-06T02:40:20;100710.16;;;1.83;100.00
35551;BME280;21655;46.056;13.616;2023-04-06T02:42:46;100701.56;;;1.77;100.00
35551;BME280;21655;46.056;13.616;2023-04-06T02:45:11;100702.31;;;1.79;100.00
35551;BME280;21655;46.056;13.616;2023-04-06T02:47:37;100707.78;;;1.79;100.00
35551;BME280;21655;46.056;13.616;2023-04-06T02:50:03;100707.53;;;1.59;100.00
35551;BME280;21655;46.056;13.616;2023-04-06T02:52:28;100711.66;;;1.64;100.00
35551;BME280;21655;46.056;13.616;2023-04-06T02:54:54;100704.63;;;1.73;100.00
35551;BME280;21655;46.056;13.616;2023-04-06T02:57:19;100705.63;;;1.72;100.00
35551;BME280;21655;46.056;13.616;2023-04-06T02:59:45;100697.78;;;1.67;100.00
35551;BME280;21655;46.056;13.616;2023-04-06T03:02:10;100707.06;;;1.65;100.00
35551;BME280;21655;46.056;13.616;2023-04-06T03:04:36;100703.81;;;1.60;100.00
35551;BME280;21655;46.056;13.616;2023-04-06T03:07:01;100707.19;;;1.63;100.00
35551;BME280;21655;46.056;13.616;2023-04-06T03:09:27;100707.72;;;1.68;100.00
35551;BME280;21655;46.056;13.616;2023-04-06T03:11:53;100709.34;;;1.47;100.00
35551;BME280;21655;46.056;13.616;2023-04-06T03:14:18;100705.09;;;1.43;100.00
35551;BME280;21655;46.056;13.616;2023-04-06T03:16:48;100713.16;;;1.45;100.00
35551;BME280;21655;46.056;13.616;2023-04-06T03:19:14;100717.78;;;1.32;100.00
35551;BME280;21655;46.056;13.616;2023-04-06T03:21:39;100711.88;;;1.38;100.00
35551;BME280;21655;46.056;13.616;2023-04-06T03:24:05;100710.78;;;1.40;100.00
35551;BME280;21655;46.056;13.616;2023-04-06T03:26:31;100711.84;;;1.50;100.00
35551;BME280;21655;46.056;13.616;2023-04-06T03:28:56;100715.06;;;1.32;100.00
35551;BME280;21655;46.056;13.616;2023-04-06T03:31:22;100720.06;;;1.38;100.00
35551;BME280;21655;46.056;13.616;2023-04-06T03:33:47;100719.66;;;1.31;100.00
35551;BME280;21655;46.056;13.616;2023-04-06T03:36:13;100724.66;;;1.37;100.00
35551;BME280;21655;46.056;13.616;2023-04-06T03:38:38;100724.56;;;1.39;100.00
35551;BME280;21655;46.056;13.616;2023-04-06T03:41:04;100722.69;;;1.39;100.00
35551;BME280;21655;46.056;13.616;2023-04-06T03:43:29;100725.41;;;1.39;100.00
35551;BME280;21655;46.056;13.616;2023-04-06T03:45:54;100717.91;;;1.30;100.00
35551;BME280;21655;46.056;13.616;2023-04-06T03:48:20;100727.38;;;1.37;100.00
35551;BME280;21655;46.056;13.616;2023-04-06T03:50:45;100722.06;;;1.36;100.00
35551;BME280;21655;46.056;13.616;2023-04-06T03:53:11;100722.16;;;1.34;100.00
35551;BME280;21655;46.056;13.616;2023-04-06T03:55:36;100732.97;;;1.36;100.00
35551;BME280;21655;46.056;13.616;2023-04-06T03:58:02;100727.53;;;1.36;100.00
35551;BME280;21655;46.056;13.616;2023-04-06T04:00:27;100730.59;;;1.31;100.00
35551;BME280;21655;46.056;13.616;2023-04-06T04:02:53;100725.59;;;1.25;100.00
35551;BME280;21655;46.056;13.616;2023-04-06T04:05:18;100728.09;;;1.28;100.00
35551;BME280;21655;46.056;13.616;2023-04-06T04:07:44;100735.94;;;1.33;100.00
35551;BME280;21655;46.056;13.616;2023-04-06T04:10:09;100738.53;;;1.34;100.00
35551;BME280;21655;46.056;13.616;2023-04-06T04:12:35;100749.47;;;1.34;100.00
35551;BME280;21655;46.056;13.616;2023-04-06T04:15:01;100748.09;;;1.16;100.00
35551;BME280;21655;46.056;13.616;2023-04-06T04:17:28;100736.31;;;1.16;100.00
35551;BME280;21655;46.056;13.616;2023-04-06T04:19:53;100730.63;;;1.19;100.00
35551;BME280;21655;46.056;13.616;2023-04-06T04:22:19;100739.44;;;1.22;100.00
35551;BME280;21655;46.056;13.616;2023-04-06T04:24:44;100744.13;;;1.20;100.00
35551;BME280;21655;46.056;13.616;2023-04-06T04:27:10;100745.03;;;1.21;100.00
35551;BME280;21655;46.056;13.616;2023-04-06T04:29:35;100748.31;;;1.13;100.00
35551;BME280;21655;46.056;13.616;2023-04-06T04:32:01;100744.91;;;1.22;100.00
35551;BME280;21655;46.056;13.616;2023-04-06T04:34:26;100751.34;;;1.21;100.00
35551;BME280;21655;46.056;13.616;2023-04-06T04:36:52;100750.16;;;1.25;100.00
35551;BME280;21655;46.056;13.616;2023-04-06T04:39:18;100750.91;;;1.27;100.00
35551;BME280;21655;46.056;13.616;2023-04-06T04:41:43;100751.16;;;1.24;100.00
35551;BME280;21655;46.056;13.616;2023-04-06T04:44:09;100756.81;;;1.21;100.00
35551;BME280;21655;46.056;13.616;2023-04-06T04:46:34;100755.63;;;1.25;100.00
35551;BME280;21655;46.056;13.616;2023-04-06T04:49:00;100762.59;;;1.29;100.00
35551;BME280;21655;46.056;13.616;2023-04-06T04:51:25;100754.81;;;1.36;100.00
35551;BME280;21655;46.056;13.616;2023-04-06T04:53:51;100770.03;;;1.27;100.00
35551;BME280;21655;46.056;13.616;2023-04-06T04:56:16;100761.47;;;1.32;100.00
35551;BME280;21655;46.056;13.616;2023-04-06T04:58:42;100767.16;;;1.29;100.00
35551;BME280;21655;46.056;13.616;2023-04-06T05:01:08;100766.97;;;1.19;100.00
35551;BME280;21655;46.056;13.616;2023-04-06T05:03:33;100771.53;;;1.31;100.00
35551;BME280;21655;46.056;13.616;2023-04-06T05:05:59;100764.00;;;1.35;100.00
35551;BME280;21655;46.056;13.616;2023-04-06T05:08:25;100772.72;;;1.40;100.00
35551;BME280;21655;46.056;13.616;2023-04-06T05:10:50;100774.38;;;1.30;100.00
35551;BME280;21655;46.056;13.616;2023-04-06T05:13:16;100772.41;;;1.32;100.00
35551;BME280;21655;46.056;13.616;2023-04-06T05:15:42;100770.97;;;1.39;100.00
35551;BME280;21655;46.056;13.616;2023-04-06T05:18:08;100781.47;;;1.32;100.00
35551;BME280;21655;46.056;13.616;2023-04-06T05:20:34;100775.78;;;1.35;100.00
35551;BME280;21655;46.056;13.616;2023-04-06T05:23:00;100778.28;;;1.38;100.00
35551;BME280;21655;46.056;13.616;2023-04-06T05:25:26;100778.28;;;1.51;100.00
35551;BME280;21655;46.056;13.616;2023-04-06T05:27:51;100776.13;;;1.43;100.00
35551;BME280;21655;46.056;13.616;2023-04-06T05:30:17;100770.72;;;1.54;100.00
35551;BME280;21655;46.056;13.616;2023-04-06T05:32:43;100783.56;;;1.65;100.00
35551;BME280;21655;46.056;13.616;2023-04-06T05:35:10;100775.28;;;1.66;100.00
35551;BME280;21655;46.056;13.616;2023-04-06T05:37:35;100771.78;;;1.64;100.00
35551;BME280;21655;46.056;13.616;2023-04-06T05:40:01;100782.38;;;1.69;100.00
35551;BME280;21655;46.056;13.616;2023-04-06T05:42:27;100774.00;;;1.59;100.00
35551;BME280;21655;46.056;13.616;2023-04-06T05:44:52;100779.88;;;1.66;100.00
35551;BME280;21655;46.056;13.616;2023-04-06T05:47:18;100783.41;;;1.78;100.00
35551;BME280;21655;46.056;13.616;2023-04-06T05:49:43;100774.78;;;2.08;100.00
35551;BME280;21655;46.056;13.616;2023-04-06T05:52:09;100781.53;;;3.06;100.00
35551;BME280;21655;46.056;13.616;2023-04-06T05:54:36;100771.78;;;4.21;100.00
35551;BME280;21655;46.056;13.616;2023-04-06T05:57:02;100766.66;;;5.30;100.00
35551;BME280;21655;46.056;13.616;2023-04-06T05:59:30;100764.84;;;5.49;100.00
35551;BME280;21655;46.056;13.616;2023-04-06T06:01:55;100761.75;;;6.40;100.00
35551;BME280;21655;46.056;13.616;2023-04-06T06:04:21;100766.81;;;7.02;100.00
35551;BME280;21655;46.056;13.616;2023-04-06T06:06:46;100765.94;;;6.92;100.00
35551;BME280;21655;46.056;13.616;2023-04-06T06:09:12;100765.19;;;8.08;100.00
35551;BME280;21655;46.056;13.616;2023-04-06T06:11:37;100762.09;;;8.56;88.43
35551;BME280;21655;46.056;13.616;2023-04-06T06:14:03;100762.84;;;8.58;82.36
35551;BME280;21655;46.056;13.616;2023-04-06T06:16:28;100758.09;;;8.85;74.84
35551;BME280;21655;46.056;13.616;2023-04-06T06:18:54;100756.53;;;9.92;69.34
35551;BME280;21655;46.056;13.616;2023-04-06T06:21:19;100754.53;;;10.68;66.19
35551;BME280;21655;46.056;13.616;2023-04-06T06:23:45;100752.22;;;10.39;65.93
35551;BME280;21655;46.056;13.616;2023-04-06T06:26:12;100755.38;;;10.60;64.40
35551;BME280;21655;46.056;13.616;2023-04-06T06:28:37;100750.16;;;10.49;57.72
35551;BME280;21655;46.056;13.616;2023-04-06T06:31:03;100745.00;;;10.05;57.21
35551;BME280;21655;46.056;13.616;2023-04-06T06:33:29;100738.69;;;10.28;55.34
35551;BME280;21655;46.056;13.616;2023-04-06T06:35:54;100742.72;;;10.50;56.36
35551;BME280;21655;46.056;13.616;2023-04-06T06:38:20;100741.72;;;10.83;52.04
35551;BME280;21655;46.056;13.616;2023-04-06T06:40:46;100740.09;;;11.36;51.55
35551;BME280;21655;46.056;13.616;2023-04-06T06:43:11;100732.66;;;11.36;48.30
35551;BME280;21655;46.056;13.616;2023-04-06T06:45:37;100728.00;;;10.97;49.59
35551;BME280;21655;46.056;13.616;2023-04-06T06:48:03;100728.31;;;11.34;49.29
35551;BME280;21655;46.056;13.616;2023-04-06T06:50:28;100732.44;;;11.46;48.50
35551;BME280;21655;46.056;13.616;2023-04-06T06:52:54;100728.09;;;11.43;46.83
35551;BME280;21655;46.056;13.616;2023-04-06T06:55:19;100727.53;;;12.18;45.81
35551;BME280;21655;46.056;13.616;2023-04-06T06:57:45;100724.84;;;11.56;48.35
35551;BME280;21655;46.056;13.616;2023-04-06T07:00:14;100721.25;;;12.77;44.66
35551;BME280;21655;46.056;13.616;2023-04-06T07:02:39;100715.88;;;12.98;45.54
35551;BME280;21655;46.056;13.616;2023-04-06T07:05:05;100710.22;;;12.61;42.32
35551;BME280;21655;46.056;13.616;2023-04-06T07:07:32;100713.63;;;12.18;43.14
35551;BME280;21655;46.056;13.616;2023-04-06T07:09:58;100700.59;;;12.94;44.05
35551;BME280;21655;46.056;13.616;2023-04-06T07:12:24;100708.13;;;12.86;42.26
35551;BME280;21655;46.056;13.616;2023-04-06T07:14:50;100710.69;;;14.33;42.21
35551;BME280;21655;46.056;13.616;2023-04-06T07:17:15;100697.91;;;15.02;41.32
35551;BME280;21655;46.056;13.616;2023-04-06T07:19:41;100692.13;;;15.03;40.34
35551;BME280;21655;46.056;13.616;2023-04-06T07:22:06;100701.38;;;14.62;40.88
35551;BME280;21655;46.056;13.616;2023-04-06T07:24:32;100698.63;;;15.10;39.14
35551;BME280;21655;46.056;13.616;2023-04-06T07:26:59;100699.41;;;14.41;38.37
35551;BME280;21655;46.056;13.616;2023-04-06T07:29:26;100695.13;;;13.95;38.68
35551;BME280;21655;46.056;13.616;2023-04-06T07:31:51;100690.72;;;13.43;39.26
35551;BME280;21655;46.056;13.616;2023-04-06T07:34:17;100690.50;;;14.17;38.46
35551;BME280;21655;46.056;13.616;2023-04-06T07:36:42;100693.22;;;14.46;38.32
35551;BME280;21655;46.056;13.616;2023-04-06T07:39:08;100687.63;;;13.81;37.92
35551;BME280;21655;46.056;13.616;2023-04-06T07:41:33;100692.41;;;14.16;37.21
35551;BME280;21655;46.056;13.616;2023-04-06T07:43:59;100683.59;;;14.48;36.91
35551;BME280;21655;46.056;13.616;2023-04-06T07:46:24;100679.72;;;15.12;36.23
35551;BME280;21655;46.056;13.616;2023-04-06T07:48:50;100691.19;;;15.17;35.79
35551;BME280;21655;46.056;13.616;2023-04-06T07:51:16;100681.44;;;15.13;35.70
35551;BME280;21655;46.056;13.616;2023-04-06T07:53:44;100679.75;;;14.91;36.19
35551;BME280;21655;46.056;13.616;2023-04-06T07:56:09;100680.53;;;15.06;34.82
35551;BME280;21655;46.056;13.616;2023-04-06T07:58:35;100679.03;;;14.83;35.63
35551;BME280;21655;46.056;13.616;2023-04-06T08:01:01;100671.69;;;15.02;35.51
35551;BME280;21655;46.056;13.616;2023-04-06T08:03:26;100672.72;;;15.43;34.99
35551;BME280;21655;46.056;13.616;2023-04-06T08:05:52;100676.38;;;15.44;34.46
35551;BME280;21655;46.056;13.616;2023-04-06T08:08:18;100667.41;;;15.55;33.81
35551;BME280;21655;46.056;13.616;2023-04-06T08:10:44;100656.09;;;15.69;34.12
35551;BME280;21655;46.056;13.616;2023-04-06T08:13:10;100653.94;;;16.65;34.00
35551;BME280;21655;46.056;13.616;2023-04-06T08:15:35;100660.19;;;16.14;32.91
35551;BME280;21655;46.056;13.616;2023-04-06T08:18:01;100647.91;;;16.49;32.56
35551;BME280;21655;46.056;13.616;2023-04-06T08:20:26;100645.53;;;17.75;32.25
35551;BME280;21655;46.056;13.616;2023-04-06T08:22:52;100645.16;;;17.20;31.14
35551;BME280;21655;46.056;13.616;2023-04-06T08:25:17;100641.06;;;17.16;31.47
35551;BME280;21655;46.056;13.616;2023-04-06T08:27:43;100641.31;;;17.34;31.46
35551;BME280;21655;46.056;13.616;2023-04-06T08:30:09;100644.94;;;18.68;31.96
35551;BME280;21655;46.056;13.616;2023-04-06T08:32:34;100645.19;;;18.97;29.55
35551;BME280;21655;46.056;13.616;2023-04-06T08:35:00;100634.59;;;19.90;29.64
35551;BME280;21655;46.056;13.616;2023-04-06T08:37:25;100635.22;;;19.92;28.87
35551;BME280;21655;46.056;13.616;2023-04-06T08:39:51;100638.03;;;19.92;29.11
35551;BME280;21655;46.056;13.616;2023-04-06T08:42:20;100634.28;;;21.22;27.68
35551;BME280;21655;46.056;13.616;2023-04-06T08:44:46;100627.69;;;21.51;27.42
35551;BME280;21655;46.056;13.616;2023-04-06T08:47:12;100623.69;;;20.18;27.95
35551;BME280;21655;46.056;13.616;2023-04-06T08:49:38;100626.47;;;19.40;28.23
35551;BME280;21655;46.056;13.616;2023-04-06T08:52:07;100625.94;;;19.25;28.25
35551;BME280;21655;46.056;13.616;2023-04-06T08:54:36;100622.81;;;19.39;27.96
35551;BME280;21655;46.056;13.616;2023-04-06T08:57:02;100616.78;;;19.05;28.36
35551;BME280;21655;46.056;13.616;2023-04-06T08:59:28;100612.19;;;20.02;29.12
35551;BME280;21655;46.056;13.616;2023-04-06T09:01:55;100607.47;;;19.96;26.63
35551;BME280;21655;46.056;13.616;2023-04-06T09:04:21;100604.00;;;21.29;25.71
35551;BME280;21655;46.056;13.616;2023-04-06T09:06:46;100596.41;;;21.53;26.63
35551;BME280;21655;46.056;13.616;2023-04-06T09:09:12;100595.22;;;20.85;25.80
35551;BME280;21655;46.056;13.616;2023-04-06T09:11:45;100596.28;;;20.55;26.47
35551;BME280;21655;46.056;13.616;2023-04-06T09:14:11;100596.91;;;21.61;25.08
35551;BME280;21655;46.056;13.616;2023-04-06T09:16:41;100590.38;;;21.49;25.20
35551;BME280;21655;46.056;13.616;2023-04-06T09:19:07;100588.94;;;21.58;24.70
35551;BME280;21655;46.056;13.616;2023-04-06T09:21:33;100593.38;;;20.61;26.84
35551;BME280;21655;46.056;13.616;2023-04-06T09:24:00;100592.22;;;21.90;24.87
35551;BME280;21655;46.056;13.616;2023-04-06T09:26:25;100584.25;;;22.38;24.09
35551;BME280;21655;46.056;13.616;2023-04-06T09:28:56;100578.25;;;21.72;24.30
35551;BME280;21655;46.056;13.616;2023-04-06T09:31:27;100576.78;;;22.20;24.84
35551;BME280;21655;46.056;13.616;2023-04-06T09:33:53;100573.22;;;22.64;24.60
35551;BME280;21655;46.056;13.616;2023-04-06T09:36:19;100565.56;;;22.37;25.44
35551;BME280;21655;46.056;13.616;2023-04-06T09:38:55;100563.84;;;22.92;25.06
35551;BME280;21655;46.056;13.616;2023-04-06T09:41:24;100563.59;;;22.93;23.97
35551;BME280;21655;46.056;13.616;2023-04-06T09:46:31;100563.91;;;22.24;23.14
35551;BME280;21655;46.056;13.616;2023-04-06T09:48:58;100558.41;;;21.67;24.70
35551;BME280;21655;46.056;13.616;2023-04-06T09:51:25;100560.31;;;21.09;26.21
35551;BME280;21655;46.056;13.616;2023-04-06T09:53:53;100556.00;;;19.35;26.27
35551;BME280;21655;46.056;13.616;2023-04-06T09:56:23;100541.88;;;19.77;27.09
35551;BME280;21655;46.056;13.616;2023-04-06T09:58:53;100541.59;;;19.43;26.85
35551;BME280;21655;46.056;13.616;2023-04-06T10:01:22;100551.63;;;18.66;27.63
35551;BME280;21655;46.056;13.616;2023-04-06T10:06:39;100537.88;;;19.06;26.98
35551;BME280;21655;46.056;13.616;2023-04-06T10:09:07;100527.38;;;19.92;26.46
35551;BME280;21655;46.056;13.616;2023-04-06T10:11:34;100528.41;;;20.45;26.61
35551;BME280;21655;46.056;13.616;2023-04-06T10:14:00;100531.06;;;20.81;25.99
35551;BME280;21655;46.056;13.616;2023-04-06T10:16:26;100528.75;;;19.53;26.75
35551;BME280;21655;46.056;13.616;2023-04-06T10:19:02;100533.13;;;18.52;27.60
35551;BME280;21655;46.056;13.616;2023-04-06T10:21:32;100531.44;;;18.44;28.02
35551;BME280;21655;46.056;13.616;2023-04-06T10:24:00;100523.63;;;16.95;30.01
35551;BME280;21655;46.056;13.616;2023-04-06T10:26:27;100522.06;;;17.25;28.70
35551;BME280;21655;46.056;13.616;2023-04-06T10:28:52;100510.97;;;19.71;27.43
35551;BME280;21655;46.056;13.616;2023-04-06T10:31:27;100509.88;;;19.72;27.67
35551;BME280;21655;46.056;13.616;2023-04-06T10:33:53;100510.31;;;18.42;28.75
35551;BME280;21655;46.056;13.616;2023-04-06T10:36:26;100505.47;;;17.36;29.43
35551;BME280;21655;46.056;13.616;2023-04-06T10:39:01;100511.13;;;18.98;27.83
35551;BME280;21655;46.056;13.616;2023-04-06T10:41:44;100496.03;;;20.47;27.33
35551;BME280;21655;46.056;13.616;2023-04-06T10:44:20;100499.09;;;18.91;27.90
35551;BME280;21655;46.056;13.616;2023-04-06T10:46:58;100506.22;;;18.07;29.55
35551;BME280;21655;46.056;13.616;2023-04-06T10:49:26;100494.00;;;18.26;29.62
35551;BME280;21655;46.056;13.616;2023-04-06T10:51:53;100503.06;;;17.33;31.03
35551;BME280;21655;46.056;13.616;2023-04-06T10:54:21;100499.91;;;17.74;30.34
35551;BME280;21655;46.056;13.616;2023-04-06T10:56:47;100491.97;;;18.88;29.11
35551;BME280;21655;46.056;13.616;2023-04-06T10:59:13;100500.94;;;18.17;29.75
35551;BME280;21655;46.056;13.616;2023-04-06T11:01:44;100490.41;;;18.92;28.47
35551;BME280;21655;46.056;13.616;2023-04-06T11:04:16;100485.66;;;18.93;28.25
35551;BME280;21655;46.056;13.616;2023-04-06T11:06:46;100492.13;;;18.44;29.77
35551;BME280;21655;46.056;13.616;2023-04-06T11:09:23;100473.03;;;19.44;30.65
35551;BME280;21655;46.056;13.616;2023-04-06T11:11:49;100478.75;;;18.71;30.10
35551;BME280;21655;46.056;13.616;2023-04-06T11:14:14;100478.00;;;18.57;30.66
35551;BME280;21655;46.056;13.616;2023-04-06T11:16:40;100465.03;;;18.56;29.69
35551;BME280;21655;46.056;13.616;2023-04-06T11:19:05;100461.94;;;17.71;30.13
35551;BME280;21655;46.056;13.616;2023-04-06T11:24:10;100457.63;;;17.69;31.21
35551;BME280;21655;46.056;13.616;2023-04-06T11:29:05;100452.13;;;18.49;29.98
35551;BME280;21655;46.056;13.616;2023-04-06T11:31:30;100451.50;;;17.47;31.68
35551;BME280;21655;46.056;13.616;2023-04-06T11:33:57;100438.97;;;18.49;30.10
35551;BME280;21655;46.056;13.616;2023-04-06T11:36:22;100439.75;;;18.98;30.34
35551;BME280;21655;46.056;13.616;2023-04-06T11:38:48;100438.50;;;18.52;29.67
35551;BME280;21655;46.056;13.616;2023-04-06T11:41:14;100434.63;;;19.13;30.04
35551;BME280;21655;46.056;13.616;2023-04-06T11:43:47;100436.81;;;18.94;30.41
35551;BME280;21655;46.056;13.616;2023-04-06T11:46:18;100439.72;;;18.38;30.45
35551;BME280;21655;46.056;13.616;2023-04-06T11:48:46;100438.06;;;18.24;30.42
35551;BME280;21655;46.056;13.616;2023-04-06T11:51:11;100438.88;;;18.62;30.34
35551;BME280;21655;46.056;13.616;2023-04-06T11:53:44;100433.69;;;17.73;31.33
35551;BME280;21655;46.056;13.616;2023-04-06T11:56:11;100438.94;;;16.93;32.24
35551;BME280;21655;46.056;13.616;2023-04-06T11:58:36;100435.41;;;17.74;32.22
35551;BME280;21655;46.056;13.616;2023-04-06T12:01:05;100434.13;;;18.01;30.77
35551;BME280;21655;46.056;13.616;2023-04-06T12:03:30;100431.78;;;17.60;31.43
35551;BME280;21655;46.056;13.616;2023-04-06T12:05:56;100444.22;;;17.40;31.81
35551;BME280;21655;46.056;13.616;2023-04-06T12:08:21;100429.28;;;16.05;34.04
35551;BME280;21655;46.056;13.616;2023-04-06T12:10:50;100413.94;;;18.17;32.75
35551;BME280;21655;46.056;13.616;2023-04-06T12:13:16;100423.13;;;19.21;30.08
35551;BME280;21655;46.056;13.616;2023-04-06T12:15:41;100423.88;;;19.46;29.81
35551;BME280;21655;46.056;13.616;2023-04-06T12:18:07;100413.72;;;18.18;31.28
35551;BME280;21655;46.056;13.616;2023-04-06T12:20:33;100411.34;;;17.91;32.52
35551;BME280;21655;46.056;13.616;2023-04-06T12:22:58;100409.44;;;18.40;31.35
35551;BME280;21655;46.056;13.616;2023-04-06T12:25:24;100406.16;;;16.94;33.75
35551;BME280;21655;46.056;13.616;2023-04-06T12:27:49;100398.97;;;18.29;32.09
35551;BME280;21655;46.056;13.616;2023-04-06T12:30:15;100400.56;;;17.88;31.92
35551;BME280;21655;46.056;13.616;2023-04-06T12:32:41;100399.50;;;17.51;32.50
35551;BME280;21655;46.056;13.616;2023-04-06T12:35:06;100388.53;;;18.05;31.60
35551;BME280;21655;46.056;13.616;2023-04-06T12:37:34;100399.78;;;17.30;32.62
35551;BME280;21655;46.056;13.616;2023-04-06T12:39:59;100387.00;;;17.47;33.16
35551;BME280;21655;46.056;13.616;2023-04-06T12:42:25;100400.19;;;17.78;32.34
35551;BME280;21655;46.056;13.616;2023-04-06T12:44:51;100392.06;;;17.19;32.97
35551;BME280;21655;46.056;13.616;2023-04-06T12:47:17;100385.56;;;16.69;33.84